LKPR/PRG METAR and TAF weather

Enter ICAO airport designator
Station Type Date Time Source
LKPR METAR 2022/07/03 14:30 UTC NOAA

LKPR 031430Z 27004KT 220V030 CAVOK 27/14 Q1018 NOSIG


Station Type Date Time Source
LKPR Decoded METAR 2022/07/03 14:30 UTC NOAA

Praha / Ruzyne, Czech Republic (LKPR) 50-06N 014-15E 365M
Jul 03, 2022 - 10:30 AM EDT / 2022.07.03 1430 UTC
Wind: from the W (270 degrees) at 5 MPH (4 KT) (direction variable):0
Visibility: greater than 7 mile(s):0
Temperature: 80 F (27 C)
Dew Point: 57 F (14 C)
Relative Humidity: 44%
Pressure (altimeter): 30.06 in. Hg (1018 hPa)
ob: LKPR 031430Z 27004KT 220V030 CAVOK 27/14 Q1018 NOSIG
cycle: 14

Station Type Date Time Source
LKPR TAF 2022/07/03 12:07 UTC NOAA

TAF LKPR 031100Z 0312/0418 19008KT CAVOK
TEMPO 0409/0418 9999 SCT036

Example: see airport list